グアム の空港の天気 - METARとTAF

グアム国際空港 ( PGUM / GUM ) - グアム ハガニア
飛行場実況気象(Metar)
観測時間07/21 07:54 ChST (07/20 21:54 UTC)
風向・風速東 5m/s
視程10km以上
天気現象
なし
気温28.9℃
湿度82%
気圧1010.9hPa
METARPGUM 202154Z 09009KT 10SM CLR 29/26 A2988 RMK AO2 SLP109 T02890256
過去の天気等 Google飛行場航空写真 Wunderground天気予報

過去48時間のMETAR

飛行場予報(TAF)
発表時間: 7/21 06:36 ChST (7/20 20:36 UTC)
予報対象時間: 21日7時 ChST ~ 22日10時 ChST
風向・風速東 4m/s
視程10km以上
天気現象周辺でしゅう雨
少しの雲 雲底高度 610m
全天の4割程度の雲 雲底高度 1,520m
21日11時 ChST から
風向・風速東 7m/s
視程10km以上
天気現象周辺でしゅう雨
少しの雲 雲底高度 610m
全天の4割程度の雲 雲底高度 1,520m
21日18時 ChST から
風向・風速東 4m/s
視程10km以上
天気現象周辺でしゅう雨
少しの雲 雲底高度 610m
全天の4割程度の雲 雲底高度 1,520m
PGUM 202036Z 2021/2124 09008KT P6SM VCSH FEW020 SCT050
FM210100 09014KT P6SM VCSH FEW020 SCT050
FM210800 08008KT P6SM VCSH FEW020 SCT050